Wyatt, Missouri
Current Conditions -  °F | °C
As of 10:35 AM on Sunday 21 Dec 2014 (Local Time) from KCIR Reporting Station
Clear Clear  
Wind Chill: 40°   Ceiling: Unl
Heat Index: 40°   Visibility: 10mi
Dew Point: 34°   Wind: 0mph
Humidity: 78%   Direction: NA
Pressure: 30.24"   Gusts: NA
Location:  36.91°N, 89.22°W
Report Text: KCIR 211635Z AUTO 00000KT 10SM CLR 05/01 A3024 RMK AO2 T00470011
Loading
Personal Weather Stations






























Interactive Weather Map New forecast layout! Learn more

10-Day Weather Forecast

Advertisements
Track Severe Weather on mobile